Sunday, December 17, 2017, 10:13 PM EST
Back to Local

KBJJ, Wooster Wayne County Airport

Location: Smithville, OH, United States Lat: 40.867
Local Time: 10:13 PM EST ( 3:13 GMT) Lon: -81.883
Time Zone: US/Eastern Elev: 1138 ft

Show me the last for .
Show Decoded

2017-12-17 20:56 METAR KBJJ 180156Z AUTO 23005KT 7SM BKN037 OVC049 02/01 A3009 RMK AO2 RAB0059E32
                 SLP200 P0000 T00170006 =
2017-12-17 19:56 METAR KBJJ 180056Z AUTO 21008KT 8SM OVC037 02/00 A3009 RMK AO2 SLP202 T00170000
                 =
2017-12-17 18:56 METAR KBJJ 172356Z AUTO 19006KT 7SM OVC050 01/00 A3007 RMK AO2 SLP195 60002
                 T00110000 10028 20006 56014 =
2017-12-17 17:56 METAR KBJJ 172256Z AUTO 17006KT 6SM BR FEW045 BKN060 OVC080 01/00 A3008 RMK AO2
                 RAE07 SLP196 P0000 T00110000 =
2017-12-17 16:56 METAR KBJJ 172156Z AUTO 19004KT 6SM -RA BR FEW030 BKN060 OVC080 01/00 A3010 RMK
                 AO2 SLP206 P0002 T00110000 =
2017-12-17 15:56 METAR KBJJ 172056Z AUTO 21007KT 5SM -RA BR OVC047 02/M01 A3011 RMK AO2 SLP209
                 P0000 60000 T00171006 55002 =
2017-12-17 14:56 METAR KBJJ 171956Z AUTO 20006KT 8SM -RA BKN060 OVC070 03/M01 A3010 RMK AO2 RAB53
                 SLP203 P0000 T00281011 =
2017-12-17 13:56 METAR KBJJ 171856Z AUTO 18006KT 8SM FEW110 03/M01 A3009 RMK AO2 SLP201 T00281011
                 =
2017-12-17 12:56 METAR KBJJ 171756Z AUTO 16003KT 7SM CLR 03/M01 A3012 RMK AO2 SLP210 T00281011
                 10028 21050 56022 =
2017-12-17 11:56 METAR KBJJ 171656Z AUTO 13003KT 7SM CLR 02/M01 A3013 RMK AO2 SLP213 T00221011 =
2017-12-17 10:56 METAR KBJJ 171556Z AUTO 20003KT 7SM CLR 02/M01 A3017 RMK AO2 SLP231 T00171011 =
2017-12-17 09:56 METAR KBJJ 171456Z AUTO 21003KT 7SM CLR 01/M02 A3019 RMK AO2 SLP236 T00111017
                 53007 =
2017-12-17 08:56 METAR KBJJ 171356Z AUTO 18003KT 6SM BR CLR M02/M04 A3018 RMK AO2 SLP235
                 T10221039 =
2017-12-17 07:56 METAR KBJJ 171256Z AUTO 00000KT 6SM BR CLR M04/M06 A3016 RMK AO2 SLP230
                 T10391056 =
2017-12-17 06:56 METAR KBJJ 171156Z AUTO 19003KT 9SM CLR M04/M06 A3016 RMK AO2 SLP230 T10391056
                 11011 21061 51009 =
2017-12-17 05:56 METAR KBJJ 171056Z AUTO 00000KT 9SM CLR M02/M04 A3016 RMK AO2 SLP226 T10171044 =
2017-12-17 04:56 METAR KBJJ 170956Z AUTO 00000KT 8SM CLR M04/M06 A3015 RMK AO2 SLP223 T10441056 =
2017-12-17 03:56 METAR KBJJ 170856Z AUTO 00000KT 8SM CLR M04/M06 A3014 RMK AO2 SLP216 T10391056
                 58001 =
2017-12-17 02:56 METAR KBJJ 170756Z AUTO 00000KT 9SM CLR M03/M05 A3015 RMK AO2 SLP219 T10281050 =
2017-12-17 01:56 METAR KBJJ 170656Z AUTO 00000KT 8SM CLR M03/M06 A3014 RMK AO2 SLP217 T10331056 =
2017-12-17 00:56 METAR KBJJ 170556Z AUTO 24004KT 9SM CLR M02/M04 A3014 RMK AO2 SLP217 I6000
                 T10171044 11017 21072 51011 =
2017-12-16 23:56 METAR KBJJ 170456Z AUTO 22004KT 8SM CLR M03/M05 A3013 RMK AO2 SLP215 T10281050
                 400561072 =
2017-12-16 22:56 METAR KBJJ 170356Z AUTO 23004KT 5SM BR CLR M06/M07 A3012 RMK AO2 SLP214 I1000
                 T10561067 =

Support USWX by starting your Amazon purchase here.